Alpine Meadows, California
Current Conditions -  °F | °C
As of 11:54 AM on Tuesday 25 Nov 2014 (Local Time) from KTRK Reporting Station
Clear Clear  
Wind Chill: 48°   Ceiling: Unl
Heat Index: 48°   Visibility: 10mi
Dew Point: 30°   Wind: 0mph
Humidity: 50%   Direction: NA
Pressure: 30.53"   Gusts: NA
Location:  39.16°N, 120.24°W
Report Text: KTRK 251954Z 00000KT 10SM SKC 09/M01 A3053 RMK NOSPECI
Loading
Personal Weather Stations






























Interactive Weather Map New forecast layout! Learn more

10-Day Weather Forecast

Advertisements
Track Severe Weather on mobile